Time;durP1;ratioP1;P1;durP2;ratioP2;P2;SDS_P1;SDS_P2;PMS_P1;PMS_P2;Temp;Humidity;BMP_temperature;BMP_pressure;BME280_temperature;BME280_humidity;BME280_pressure;Samples;Min_cycle;Max_cycle;Signal;HPM_P1;HPM_P2
2023/01/05 00:01:14;;;;;;;30.98;4.35;;;;;;;;;;4994831;28;20041;-77
2023/01/05 00:03:40;;;;;;;31.83;4.03;;;;;;;;;;4994303;28;20367;-76
2023/01/05 00:06:09;;;;;;;47.78;4.95;;;;;;;;;;4991919;28;20026;-76
2023/01/05 00:08:35;;;;;;;29.88;3.85;;;;;;;;;;4994223;28;20101;-76
2023/01/05 00:22:30;;;;;;;40.75;4.38;;;;;;;;;;5003384;28;20037;-78
2023/01/05 00:24:57;;;;;;;43.80;4.78;;;;;;;;;;4993355;28;20060;-79
2023/01/05 00:27:23;;;;;;;32.40;4.38;;;;;;;;;;4993417;28;20029;-75
2023/01/05 00:29:48;;;;;;;24.20;3.55;;;;;;;;;;4993128;28;20026;-77
2023/01/05 00:32:14;;;;;;;36.40;4.88;;;;;;;;;;4993161;28;20034;-78
2023/01/05 00:34:40;;;;;;;34.03;4.05;;;;;;;;;;4993675;28;20031;-78
2023/01/05 00:37:06;;;;;;;39.40;4.30;;;;;;;;;;4993036;28;20026;-77
2023/01/05 00:39:32;;;;;;;36.55;4.97;;;;;;;;;;4997149;28;20030;-78
2023/01/05 00:41:58;;;;;;;34.85;5.70;;;;;;;;;;4998049;28;20026;-78
2023/01/05 00:44:24;;;;;;;40.72;5.00;;;;;;;;;;4995536;28;20023;-78
2023/01/05 00:46:50;;;;;;;36.22;4.63;;;;;;;;;;4999762;28;20050;-79
2023/01/05 00:49:16;;;;;;;24.85;4.03;;;;;;;;;;5001971;28;20486;-75
2023/01/05 00:51:42;;;;;;;33.92;5.35;;;;;;;;;;4998707;28;20049;-77
2023/01/05 00:54:08;;;;;;;23.67;4.13;;;;;;;;;;4998383;28;20023;-75
2023/01/05 00:56:34;;;;;;;34.22;4.28;;;;;;;;;;4995836;28;20028;-78
2023/01/05 00:59:00;;;;;;;25.73;3.65;;;;;;;;;;4992917;28;20367;-76
2023/01/05 01:01:26;;;;;;;29.55;3.55;;;;;;;;;;4993352;28;20049;-76
2023/01/05 01:03:52;;;;;;;28.50;4.10;;;;;;;;;;4992813;28;20027;-75
2023/01/05 01:06:18;;;;;;;25.08;3.85;;;;;;;;;;4991366;28;20343;-77
2023/01/05 01:08:44;;;;;;;23.17;3.55;;;;;;;;;;4991888;28;20053;-76
2023/01/05 01:11:10;;;;;;;28.45;3.88;;;;;;;;;;4994244;28;20054;-75
2023/01/05 01:13:37;;;;;;;24.35;3.78;;;;;;;;;;5024316;22;20045;-74
2023/01/05 01:16:07;;;;;;;22.73;3.17;;;;;;;;;;5031187;28;20454;-74
2023/01/05 01:18:33;;;;;;;21.42;3.15;;;;;;;;;;5031919;28;20021;-76
2023/01/05 01:20:59;;;;;;;34.50;4.10;;;;;;;;;;5031762;28;20072;-76
2023/01/05 01:23:25;;;;;;;23.55;3.33;;;;;;;;;;5035086;28;20021;-75
2023/01/05 01:25:51;;;;;;;30.52;3.83;;;;;;;;;;5036523;28;20478;-74
2023/01/05 01:28:17;;;;;;;29.98;4.45;;;;;;;;;;5036759;28;20028;-74
2023/01/05 01:30:43;;;;;;;26.65;4.13;;;;;;;;;;5039301;28;20025;-76
2023/01/05 01:33:08;;;;;;;28.92;3.80;;;;;;;;;;5040190;28;20091;-75
2023/01/05 01:35:36;;;;;;;21.65;3.80;;;;;;;;;;5039958;28;20033;-73
2023/01/05 01:38:02;;;;;;;25.73;4.28;;;;;;;;;;5040973;28;20034;-74
2023/01/05 01:40:28;;;;;;;29.17;3.92;;;;;;;;;;5040786;28;20113;-76
2023/01/05 01:42:54;;;;;;;29.67;4.50;;;;;;;;;;5039455;28;20029;-74
2023/01/05 01:45:24;;;;;;;28.02;3.63;;;;;;;;;;5031426;28;20026;-75
2023/01/05 01:47:50;;;;;;;30.42;4.28;;;;;;;;;;5029331;28;20433;-74
2023/01/05 01:50:15;;;;;;;23.45;3.38;;;;;;;;;;5029610;28;20025;-74
2023/01/05 01:52:42;;;;;;;26.70;3.90;;;;;;;;;;5030968;28;20446;-77
2023/01/05 01:55:09;;;;;;;29.50;3.67;;;;;;;;;;5031217;28;20040;-74
2023/01/05 01:57:35;;;;;;;27.08;4.20;;;;;;;;;;5030753;28;20083;-75
2023/01/05 02:00:02;;;;;;;30.13;3.95;;;;;;;;;;5030713;28;20033;-75
2023/01/05 02:02:29;;;;;;;25.50;3.53;;;;;;;;;;5030870;28;20029;-75
2023/01/05 02:04:57;;;;;;;26.60;3.58;;;;;;;;;;5031017;28;20419;-75
2023/01/05 02:07:24;;;;;;;24.50;3.67;;;;;;;;;;5029178;28;20091;-75
2023/01/05 02:09:50;;;;;;;27.75;3.65;;;;;;;;;;5030668;28;20030;-76
2023/01/05 02:12:29;;;;;;;32.72;3.30;;;;;;;;;;5030171;28;20112;-76
2023/01/05 02:15:05;;;;;;;28.08;3.75;;;;;;;;;;5030871;28;20041;-75
2023/01/05 02:17:50;;;;;;;30.80;4.05;;;;;;;;;;5051359;28;20090;-74
2023/01/05 02:20:23;;;;;;;27.15;3.95;;;;;;;;;;5047653;28;20083;-75
2023/01/05 02:23:00;;;;;;;29.50;4.30;;;;;;;;;;5054533;28;20025;-72
2023/01/05 02:25:29;;;;;;;27.90;3.75;;;;;;;;;;5058023;28;20056;-72
2023/01/05 02:28:10;;;;;;;25.02;3.67;;;;;;;;;;5058312;28;20017;-74
2023/01/05 02:30:42;;;;;;;22.13;3.35;;;;;;;;;;5052939;28;20025;-75
2023/01/05 02:33:12;;;;;;;25.08;3.63;;;;;;;;;;5034169;28;20017;-75
2023/01/05 02:35:46;;;;;;;22.40;3.13;;;;;;;;;;5033858;28;20087;-74
2023/01/05 02:38:31;;;;;;;20.17;2.80;;;;;;;;;;5034060;28;20029;-76
2023/01/05 02:40:58;;;;;;;21.92;3.30;;;;;;;;;;5034538;28;20418;-75
2023/01/05 02:43:26;;;;;;;19.40;2.50;;;;;;;;;;5034362;28;20145;-75
2023/01/05 02:45:52;;;;;;;28.13;3.45;;;;;;;;;;5033549;28;20489;-76
2023/01/05 02:48:18;;;;;;;32.13;3.72;;;;;;;;;;5033152;28;20021;-75
2023/01/05 02:50:48;;;;;;;19.58;2.53;;;;;;;;;;5033701;28;20431;-76
2023/01/05 02:53:20;;;;;;;32.13;3.40;;;;;;;;;;5033564;28;20390;-75
2023/01/05 02:55:49;;;;;;;19.52;2.75;;;;;;;;;;5039001;28;20075;-74
2023/01/05 02:58:18;;;;;;;25.58;3.22;;;;;;;;;;5042991;28;20115;-75
2023/01/05 03:00:48;;;;;;;17.40;2.58;;;;;;;;;;5050752;28;20029;-71
2023/01/05 03:03:14;;;;;;;27.13;3.15;;;;;;;;;;5057722;28;20018;-73
2023/01/05 03:05:43;;;;;;;18.00;2.40;;;;;;;;;;5057582;28;20162;-73
2023/01/05 03:08:20;;;;;;;18.02;2.47;;;;;;;;;;5038760;28;20085;-76
2023/01/05 03:13:40;;;;;;;23.83;2.90;;;;;;;;;;5034124;28;20092;-76
2023/01/05 03:16:07;;;;;;;16.25;2.50;;;;;;;;;;5033392;28;20015;-74
2023/01/05 03:19:34;;;;;;;21.92;3.17;;;;;;;;;;5033129;28;20021;-73
2023/01/05 03:21:21;;;;;;;17.45;2.33;;;;;;;;;;5033366;28;20076;-76
2023/01/05 03:37:59;;;;;;;16.98;2.78;;;;;;;;;;5033604;28;20090;-77
2023/01/05 03:40:27;;;;;;;23.35;2.50;;;;;;;;;;5032439;28;20056;-73
2023/01/05 03:42:54;;;;;;;13.70;2.17;;;;;;;;;;5033404;28;20036;-76
2023/01/05 03:45:21;;;;;;;26.42;3.17;;;;;;;;;;5031256;28;20029;-76
2023/01/05 03:47:48;;;;;;;19.50;3.30;;;;;;;;;;5033029;28;20497;-73
2023/01/05 03:50:14;;;;;;;24.08;2.85;;;;;;;;;;5033774;28;20037;-77
2023/01/05 03:52:40;;;;;;;22.40;3.25;;;;;;;;;;5031896;28;20544;-76
2023/01/05 03:55:06;;;;;;;28.02;3.20;;;;;;;;;;5034531;28;20026;-76
2023/01/05 03:57:32;;;;;;;22.38;3.15;;;;;;;;;;5034543;28;20033;-77
2023/01/05 03:59:58;;;;;;;28.35;2.72;;;;;;;;;;5041845;28;20052;-74
2023/01/05 04:02:24;;;;;;;29.88;3.17;;;;;;;;;;5049014;28;20040;-75
2023/01/05 04:04:50;;;;;;;27.92;3.47;;;;;;;;;;5042869;28;20034;-76
2023/01/05 04:07:16;;;;;;;25.95;3.05;;;;;;;;;;5034476;28;20513;-73
2023/01/05 04:09:42;;;;;;;32.55;3.33;;;;;;;;;;5033664;28;20504;-74
2023/01/05 04:12:08;;;;;;;26.55;4.63;;;;;;;;;;5033240;28;20047;-76
2023/01/05 04:14:34;;;;;;;23.85;2.83;;;;;;;;;;5033007;28;20033;-74
2023/01/05 04:16:59;;;;;;;22.45;3.25;;;;;;;;;;5032930;28;20027;-74
2023/01/05 04:19:25;;;;;;;26.67;3.35;;;;;;;;;;5032022;28;20386;-75
2023/01/05 04:21:51;;;;;;;17.23;2.80;;;;;;;;;;5033406;28;20033;-76
2023/01/05 04:24:17;;;;;;;35.95;3.80;;;;;;;;;;5033215;28;20426;-75
2023/01/05 04:26:43;;;;;;;28.40;2.85;;;;;;;;;;5033471;28;20100;-76
2023/01/05 04:29:10;;;;;;;23.00;3.13;;;;;;;;;;5034994;28;20021;-76
2023/01/05 04:31:36;;;;;;;29.48;3.40;;;;;;;;;;5035215;28;20475;-76
2023/01/05 04:34:02;;;;;;;24.48;3.33;;;;;;;;;;5034162;28;20103;-76
2023/01/05 04:36:28;;;;;;;25.38;3.33;;;;;;;;;;5033450;28;20517;-77
2023/01/05 04:38:54;;;;;;;22.70;3.17;;;;;;;;;;5033857;28;20364;-76
2023/01/05 04:41:20;;;;;;;20.80;3.28;;;;;;;;;;5034023;28;20040;-77
2023/01/05 04:43:45;;;;;;;21.85;2.72;;;;;;;;;;5031689;28;20084;-76
2023/01/05 04:46:11;;;;;;;24.27;3.40;;;;;;;;;;5032644;28;20021;-77
2023/01/05 04:48:37;;;;;;;24.08;3.22;;;;;;;;;;5032978;28;20028;-76
2023/01/05 04:51:03;;;;;;;24.48;3.50;;;;;;;;;;5034467;28;20101;-77
2023/01/05 04:53:29;;;;;;;27.27;2.72;;;;;;;;;;5032999;28;20025;-74
2023/01/05 04:55:55;;;;;;;28.85;4.90;;;;;;;;;;5032941;28;20025;-74
2023/01/05 04:58:21;;;;;;;26.85;3.28;;;;;;;;;;5033525;28;20026;-75
2023/01/05 05:00:49;;;;;;;22.85;2.50;;;;;;;;;;5033061;28;20025;-75
2023/01/05 05:03:15;;;;;;;28.75;3.72;;;;;;;;;;5033200;28;20024;-76
2023/01/05 05:05:41;;;;;;;22.25;2.97;;;;;;;;;;5035048;28;20038;-74
2023/01/05 05:08:07;;;;;;;29.90;2.78;;;;;;;;;;5032779;28;20159;-74
2023/01/05 05:10:33;;;;;;;18.60;2.60;;;;;;;;;;5031394;28;20108;-75
2023/01/05 05:12:59;;;;;;;21.40;2.55;;;;;;;;;;5033230;28;20057;-75
2023/01/05 05:15:25;;;;;;;22.30;2.80;;;;;;;;;;5032855;28;20061;-74
2023/01/05 05:17:51;;;;;;;23.42;2.63;;;;;;;;;;5031612;28;20083;-75
2023/01/05 05:20:17;;;;;;;26.52;3.20;;;;;;;;;;5034205;28;20072;-78
2023/01/05 05:22:43;;;;;;;25.92;3.72;;;;;;;;;;5033067;28;20025;-75
2023/01/05 05:25:09;;;;;;;16.83;2.30;;;;;;;;;;5032364;28;20092;-76
2023/01/05 05:27:35;;;;;;;25.52;2.90;;;;;;;;;;5032861;28;20100;-74
2023/01/05 05:30:01;;;;;;;21.30;2.42;;;;;;;;;;5038463;28;20057;-74
2023/01/05 05:32:27;;;;;;;19.98;2.40;;;;;;;;;;5036584;28;20084;-75
2023/01/05 05:34:53;;;;;;;21.17;3.35;;;;;;;;;;5036515;28;20486;-74
2023/01/05 05:37:19;;;;;;;25.42;3.00;;;;;;;;;;5033014;28;20060;-75
2023/01/05 05:39:45;;;;;;;29.25;3.05;;;;;;;;;;5032452;28;20040;-75
2023/01/05 05:42:11;;;;;;;34.63;2.85;;;;;;;;;;5032851;28;20034;-75
2023/01/05 05:44:37;;;;;;;18.45;2.85;;;;;;;;;;5036778;28;20120;-76
2023/01/05 05:47:03;;;;;;;32.03;3.53;;;;;;;;;;5030512;28;20028;-74
2023/01/05 05:49:29;;;;;;;27.90;2.95;;;;;;;;;;5032634;28;20022;-75
2023/01/05 05:51:55;;;;;;;28.48;4.80;;;;;;;;;;5032198;28;20497;-76
2023/01/05 05:54:21;;;;;;;20.80;3.05;;;;;;;;;;5036081;28;20409;-75
2023/01/05 05:56:47;;;;;;;32.28;3.42;;;;;;;;;;5036229;28;20398;-75
2023/01/05 05:59:13;;;;;;;23.70;3.10;;;;;;;;;;5034713;28;20032;-74
2023/01/05 06:01:39;;;;;;;24.83;3.08;;;;;;;;;;5036159;28;20081;-74
2023/01/05 06:04:05;;;;;;;24.73;2.95;;;;;;;;;;5035655;28;20026;-74
2023/01/05 06:06:31;;;;;;;36.30;2.92;;;;;;;;;;5035651;28;20076;-75
2023/01/05 06:08:57;;;;;;;31.55;4.10;;;;;;;;;;5036147;28;20033;-75
2023/01/05 06:11:22;;;;;;;32.97;3.67;;;;;;;;;;5037423;28;20430;-75
2023/01/05 06:13:48;;;;;;;33.10;4.72;;;;;;;;;;5034579;28;20037;-74
2023/01/05 06:16:15;;;;;;;25.90;3.00;;;;;;;;;;5036496;28;20098;-75
2023/01/05 06:18:41;;;;;;;23.92;3.00;;;;;;;;;;5039983;28;20320;-75
2023/01/05 06:21:07;;;;;;;34.25;3.65;;;;;;;;;;5048034;28;20104;-78
2023/01/05 06:23:33;;;;;;;31.63;3.08;;;;;;;;;;5055156;28;20048;-73
2023/01/05 06:25:59;;;;;;;37.83;4.15;;;;;;;;;;5049297;28;20049;-74
2023/01/05 06:28:25;;;;;;;36.00;3.67;;;;;;;;;;5059223;28;20021;-74
2023/01/05 06:30:51;;;;;;;33.25;3.53;;;;;;;;;;5059135;28;20024;-73
2023/01/05 06:33:18;;;;;;;26.35;3.88;;;;;;;;;;5059003;28;20017;-75
2023/01/05 06:35:44;;;;;;;44.63;3.92;;;;;;;;;;5058275;28;20013;-74
2023/01/05 06:38:10;;;;;;;27.25;3.65;;;;;;;;;;5059143;28;20056;-75
2023/01/05 06:40:36;;;;;;;34.10;3.53;;;;;;;;;;5037898;28;20471;-73
2023/01/05 06:43:02;;;;;;;33.05;4.05;;;;;;;;;;5038790;28;20033;-79
2023/01/05 06:45:28;;;;;;;30.92;4.85;;;;;;;;;;5034538;28;20033;-76
2023/01/05 06:47:54;;;;;;;32.08;3.92;;;;;;;;;;5035468;28;20026;-76
2023/01/05 06:50:20;;;;;;;36.40;3.42;;;;;;;;;;5036350;28;20022;-74
2023/01/05 06:52:46;;;;;;;31.30;3.60;;;;;;;;;;5035019;28;20053;-76
2023/01/05 06:55:12;;;;;;;32.45;4.50;;;;;;;;;;5035592;28;20501;-75
2023/01/05 06:57:38;;;;;;;32.55;3.45;;;;;;;;;;5039166;28;20124;-76
2023/01/05 07:00:05;;;;;;;30.38;2.90;;;;;;;;;;5057391;28;20033;-76
2023/01/05 07:02:31;;;;;;;31.67;3.45;;;;;;;;;;5054988;28;20083;-76
2023/01/05 07:04:57;;;;;;;28.30;3.47;;;;;;;;;;5054878;28;20029;-75
2023/01/05 07:07:23;;;;;;;29.08;4.07;;;;;;;;;;5055133;28;20060;-76
2023/01/05 07:09:49;;;;;;;36.20;3.97;;;;;;;;;;5057981;28;20084;-74
2023/01/05 07:12:16;;;;;;;32.80;2.97;;;;;;;;;;5065720;28;20025;-73
2023/01/05 07:14:42;;;;;;;31.42;3.45;;;;;;;;;;5071232;28;20045;-75
2023/01/05 07:17:08;;;;;;;31.98;3.60;;;;;;;;;;5069648;28;20078;-73
2023/01/05 07:19:34;;;;;;;33.80;3.65;;;;;;;;;;5068723;28;20108;-76
2023/01/05 07:22:00;;;;;;;33.20;3.78;;;;;;;;;;5075260;28;20021;-79
2023/01/05 07:24:26;;;;;;;42.90;4.45;;;;;;;;;;5074335;28;20033;-76
2023/01/05 07:26:52;;;;;;;24.85;3.28;;;;;;;;;;5076707;28;20029;-74
2023/01/05 07:29:18;;;;;;;25.13;3.83;;;;;;;;;;5076887;28;20040;-76
2023/01/05 07:31:46;;;;;;;33.30;3.60;;;;;;;;;;5072689;28;20052;-75
2023/01/05 07:34:12;;;;;;;35.47;4.13;;;;;;;;;;5077547;28;20040;-76
2023/01/05 07:36:38;;;;;;;27.13;3.42;;;;;;;;;;5078372;28;20032;-76
2023/01/05 07:39:04;;;;;;;29.20;3.35;;;;;;;;;;5076677;28;20086;-77
2023/01/05 07:41:30;;;;;;;35.35;4.35;;;;;;;;;;5076119;28;20017;-77
2023/01/05 07:43:56;;;;;;;31.02;3.65;;;;;;;;;;5077111;28;20040;-74
2023/01/05 07:46:22;;;;;;;26.08;3.45;;;;;;;;;;5076209;28;20032;-77
2023/01/05 07:48:48;;;;;;;45.13;4.78;;;;;;;;;;5064304;28;20098;-76
2023/01/05 07:51:14;;;;;;;26.20;3.45;;;;;;;;;;5054739;28;20096;-76
2023/01/05 07:53:40;;;;;;;26.65;3.28;;;;;;;;;;5054349;28;20726;-76
2023/01/05 07:56:06;;;;;;;31.30;4.40;;;;;;;;;;5057691;28;20480;-78
2023/01/05 07:58:33;;;;;;;33.65;4.35;;;;;;;;;;5055873;28;20025;-76
2023/01/05 08:01:03;;;;;;;35.28;4.43;;;;;;;;;;5055228;28;20021;-80
2023/01/05 08:03:29;;;;;;;33.10;4.63;;;;;;;;;;5059254;28;20017;-78
2023/01/05 08:05:55;;;;;;;38.25;5.07;;;;;;;;;;5059545;28;20075;-79
2023/01/05 08:08:21;;;;;;;35.25;4.07;;;;;;;;;;5070455;28;20598;-79
2023/01/05 08:10:47;;;;;;;38.78;4.72;;;;;;;;;;5072659;28;20067;-79
2023/01/05 08:15:59;;;;;;;35.40;5.03;;;;;;;;;;5056646;28;20114;-76
2023/01/05 08:18:25;;;;;;;50.25;5.72;;;;;;;;;;5059663;28;20174;-81
2023/01/05 08:21:03;;;;;;;39.38;4.90;;;;;;;;;;5055265;28;20486;-77
2023/01/05 08:23:30;;;;;;;41.22;4.45;;;;;;;;;;5058324;28;20112;-75
2023/01/05 08:25:56;;;;;;;34.42;4.47;;;;;;;;;;5054165;28;20470;-79
2023/01/05 08:28:25;;;;;;;40.35;4.50;;;;;;;;;;5056135;28;20031;-76
2023/01/05 08:30:51;;;;;;;36.30;5.72;;;;;;;;;;5053760;28;20080;-81
2023/01/05 08:33:17;;;;;;;31.50;4.95;;;;;;;;;;5057008;28;20048;-76
2023/01/05 08:35:44;;;;;;;33.95;4.32;;;;;;;;;;5055221;28;20401;-76
2023/01/05 08:38:10;;;;;;;44.17;4.47;;;;;;;;;;5052447;28;20120;-74
2023/01/05 08:40:37;;;;;;;28.48;3.70;;;;;;;;;;5053351;28;20409;-76
2023/01/05 08:43:03;;;;;;;31.88;4.22;;;;;;;;;;5053916;28;20456;-78
2023/01/05 08:45:31;;;;;;;24.15;3.58;;;;;;;;;;5052922;28;20527;-75
2023/01/05 08:47:57;;;;;;;25.63;3.55;;;;;;;;;;5053894;28;20025;-76
2023/01/05 08:50:23;;;;;;;30.25;4.38;;;;;;;;;;5053673;28;20466;-74
2023/01/05 08:52:49;;;;;;;29.05;3.45;;;;;;;;;;5054971;28;20079;-75
2023/01/05 08:55:15;;;;;;;30.38;3.80;;;;;;;;;;5053032;28;20028;-74
2023/01/05 08:57:41;;;;;;;22.85;3.10;;;;;;;;;;5057243;28;20060;-76
2023/01/05 09:00:07;;;;;;;35.22;4.03;;;;;;;;;;5057084;28;20055;-74
2023/01/05 09:02:33;;;;;;;35.55;4.88;;;;;;;;;;5051526;28;20060;-81
2023/01/05 09:04:59;;;;;;;30.27;4.22;;;;;;;;;;5054211;28;20035;-74
2023/01/05 09:07:27;;;;;;;28.58;4.00;;;;;;;;;;5054346;28;20100;-75
2023/01/05 09:09:53;;;;;;;32.78;4.05;;;;;;;;;;5052756;28;20105;-75
2023/01/05 09:12:19;;;;;;;36.17;4.47;;;;;;;;;;5053005;28;20126;-74
2023/01/05 09:14:45;;;;;;;34.47;4.70;;;;;;;;;;5051830;28;20044;-74
2023/01/05 09:17:11;;;;;;;35.65;4.20;;;;;;;;;;5052951;28;20032;-74
2023/01/05 09:19:37;;;;;;;27.73;3.92;;;;;;;;;;5055480;28;20474;-75
2023/01/05 09:22:03;;;;;;;32.33;4.32;;;;;;;;;;5052932;28;20470;-75
2023/01/05 09:24:29;;;;;;;52.92;9.85;;;;;;;;;;5052302;28;20470;-76
2023/01/05 09:26:55;;;;;;;41.03;5.43;;;;;;;;;;5054619;28;20025;-75
2023/01/05 09:29:21;;;;;;;40.67;5.30;;;;;;;;;;5066489;28;20274;-73
2023/01/05 09:31:47;;;;;;;26.30;3.60;;;;;;;;;;5056800;28;20367;-75
2023/01/05 09:34:13;;;;;;;34.70;4.15;;;;;;;;;;5055475;28;20029;-74
2023/01/05 09:36:39;;;;;;;54.17;4.90;;;;;;;;;;5055535;28;20029;-75
2023/01/05 09:39:05;;;;;;;33.35;4.28;;;;;;;;;;5057936;28;20053;-74
2023/01/05 09:41:46;;;;;;;26.42;4.28;;;;;;;;;;5061469;28;20106;-74
2023/01/05 09:44:28;;;;;;;37.05;4.47;;;;;;;;;;5060348;28;20025;-75
2023/01/05 09:46:55;;;;;;;31.25;4.35;;;;;;;;;;5060222;28;20023;-75
2023/01/05 09:49:22;;;;;;;34.25;4.80;;;;;;;;;;5056574;28;20037;-74
2023/01/05 09:51:50;;;;;;;36.17;4.63;;;;;;;;;;5056057;28;20021;-75
2023/01/05 09:54:17;;;;;;;30.83;4.22;;;;;;;;;;5056215;28;20047;-79
2023/01/05 09:56:45;;;;;;;42.47;4.97;;;;;;;;;;5055263;28;20029;-74
2023/01/05 09:59:25;;;;;;;38.15;4.40;;;;;;;;;;5058980;28;20116;-75
2023/01/05 10:01:52;;;;;;;35.50;4.93;;;;;;;;;;5056279;28;20087;-76
2023/01/05 10:04:20;;;;;;;32.08;4.72;;;;;;;;;;5062347;28;20031;-75
2023/01/05 10:07:02;;;;;;;38.28;4.15;;;;;;;;;;5058867;28;20401;-76
2023/01/05 10:09:30;;;;;;;34.13;4.47;;;;;;;;;;5062056;28;20024;-76
2023/01/05 10:14:48;;;;;;;41.40;4.47;;;;;;;;;;5062247;28;20086;-74
2023/01/05 10:17:18;;;;;;;36.47;4.45;;;;;;;;;;5055477;28;20025;-75
2023/01/05 10:19:45;;;;;;;34.20;5.43;;;;;;;;;;5057432;28;20021;-75
2023/01/05 10:22:36;;;;;;;42.53;4.95;;;;;;;;;;5061542;28;20033;-75
2023/01/05 10:25:23;;;;;;;32.95;5.38;;;;;;;;;;5058519;28;20020;-76
2023/01/05 10:27:56;;;;;;;39.03;5.40;;;;;;;;;;5058661;28;20078;-76
2023/01/05 10:30:23;;;;;;;46.17;5.55;;;;;;;;;;5038114;28;20021;-74
2023/01/05 10:32:49;;;;;;;41.13;4.75;;;;;;;;;;5036173;28;20021;-75
2023/01/05 10:35:34;;;;;;;40.22;4.80;;;;;;;;;;5034230;28;20474;-76
2023/01/05 10:38:04;;;;;;;39.22;4.78;;;;;;;;;;5035580;28;20101;-75
2023/01/05 10:40:45;;;;;;;40.05;5.10;;;;;;;;;;5037988;28;20033;-76
2023/01/05 10:43:11;;;;;;;49.00;5.30;;;;;;;;;;5039417;28;20029;-76
2023/01/05 10:45:37;;;;;;;32.28;4.55;;;;;;;;;;5038524;28;20410;-74
2023/01/05 10:48:03;;;;;;;46.63;5.45;;;;;;;;;;5035373;28;20061;-76
2023/01/05 10:50:37;;;;;;;38.92;5.32;;;;;;;;;;5037830;28;20025;-76
2023/01/05 10:53:14;;;;;;;42.88;4.70;;;;;;;;;;5039447;28;20025;-76
2023/01/05 10:56:02;;;;;;;33.88;4.68;;;;;;;;;;5040126;28;20029;-75
2023/01/05 10:58:37;;;;;;;35.17;6.95;;;;;;;;;;5034519;28;20029;-75
2023/01/05 11:01:04;;;;;;;48.63;5.63;;;;;;;;;;5035737;28;20037;-75
2023/01/05 11:03:36;;;;;;;47.70;5.40;;;;;;;;;;5035554;28;20099;-75
2023/01/05 11:06:03;;;;;;;35.78;4.38;;;;;;;;;;5035548;28;20116;-74
2023/01/05 11:08:29;;;;;;;35.33;4.70;;;;;;;;;;5036560;28;20096;-77
2023/01/05 11:11:06;;;;;;;37.35;5.65;;;;;;;;;;5052347;28;20045;-76
2023/01/05 11:13:38;;;;;;;43.90;5.18;;;;;;;;;;5043139;28;20037;-75
2023/01/05 11:16:09;;;;;;;38.50;4.75;;;;;;;;;;5042740;28;20072;-76
2023/01/05 11:18:39;;;;;;;23.67;5.00;;;;;;;;;;5037467;28;20029;-75
2023/01/05 11:21:10;;;;;;;39.45;4.95;;;;;;;;;;5034563;28;20033;-75
2023/01/05 11:23:38;;;;;;;35.38;4.70;;;;;;;;;;5035651;28;20390;-74
2023/01/05 11:26:17;;;;;;;37.13;5.47;;;;;;;;;;5033499;28;20033;-76
2023/01/05 11:29:03;;;;;;;26.73;3.38;;;;;;;;;;5034338;28;20079;-75
2023/01/05 11:31:35;;;;;;;28.20;5.88;;;;;;;;;;5034207;28;20025;-75
2023/01/05 11:34:07;;;;;;;27.23;3.67;;;;;;;;;;5034874;28;20477;-75
2023/01/05 11:36:33;;;;;;;37.53;7.78;;;;;;;;;;5034156;28;20029;-75
2023/01/05 11:38:59;;;;;;;29.05;4.18;;;;;;;;;;5034278;28;20383;-74
2023/01/05 11:41:25;;;;;;;34.20;5.25;;;;;;;;;;5034200;28;20025;-75
2023/01/05 11:43:53;;;;;;;28.33;4.30;;;;;;;;;;5033827;28;20030;-75
2023/01/05 11:46:20;;;;;;;29.25;3.60;;;;;;;;;;5032150;28;20113;-74
2023/01/05 11:48:50;;;;;;;33.72;5.88;;;;;;;;;;5033852;28;20067;-76
2023/01/05 11:51:33;;;;;;;25.77;3.60;;;;;;;;;;5033287;28;20494;-76
2023/01/05 11:53:59;;;;;;;33.47;4.10;;;;;;;;;;5033570;28;20049;-75
2023/01/05 11:56:25;;;;;;;36.03;4.13;;;;;;;;;;5033228;28;20028;-76
2023/01/05 11:58:56;;;;;;;27.83;4.57;;;;;;;;;;5034099;28;20041;-80
2023/01/05 12:01:34;;;;;;;31.80;3.85;;;;;;;;;;5035571;28;20063;-81
2023/01/05 12:04:00;;;;;;;26.10;3.83;;;;;;;;;;5035621;28;20045;-75
2023/01/05 12:06:45;;;;;;;24.85;4.93;;;;;;;;;;5034476;28;20021;-75
2023/01/05 12:09:23;;;;;;;30.92;5.45;;;;;;;;;;5034289;28;20030;-76
2023/01/05 12:11:59;;;;;;;26.52;4.15;;;;;;;;;;5043568;28;20085;-76
2023/01/05 12:14:41;;;;;;;28.63;3.88;;;;;;;;;;5039860;28;20037;-77
2023/01/05 12:17:14;;;;;;;29.05;4.78;;;;;;;;;;5034337;28;20025;-76
2023/01/05 12:19:40;;;;;;;25.60;4.00;;;;;;;;;;5034674;28;20033;-77
2023/01/05 12:22:18;;;;;;;29.90;4.95;;;;;;;;;;5034407;28;20048;-76
2023/01/05 12:24:47;;;;;;;24.58;3.30;;;;;;;;;;5032649;28;20029;-75
2023/01/05 12:27:25;;;;;;;29.63;6.00;;;;;;;;;;5033614;28;20430;-75
2023/01/05 12:29:54;;;;;;;38.58;5.32;;;;;;;;;;5033609;28;20390;-74
2023/01/05 12:32:32;;;;;;;20.40;3.67;;;;;;;;;;5033508;28;20407;-75
2023/01/05 12:35:20;;;;;;;32.45;4.10;;;;;;;;;;5034120;28;20466;-76
2023/01/05 12:37:52;;;;;;;24.42;3.65;;;;;;;;;;5034292;28;20501;-76
2023/01/05 12:40:27;;;;;;;23.48;3.55;;;;;;;;;;5034852;28;20052;-80
2023/01/05 12:42:56;;;;;;;30.75;3.95;;;;;;;;;;5035464;28;20109;-78
2023/01/05 12:45:41;;;;;;;23.77;6.28;;;;;;;;;;5035539;28;20021;-79
2023/01/05 12:48:12;;;;;;;29.88;4.38;;;;;;;;;;5036370;28;20022;-79
2023/01/05 12:50:44;;;;;;;29.88;4.70;;;;;;;;;;5035257;28;20033;-79
2023/01/05 12:53:10;;;;;;;19.55;3.10;;;;;;;;;;5037747;28;20199;-78
2023/01/05 12:55:41;;;;;;;12.32;2.70;;;;;;;;;;5036084;28;20040;-79
2023/01/05 12:58:16;;;;;;;21.00;3.80;;;;;;;;;;5038605;28;20509;-79
2023/01/05 13:00:45;;;;;;;25.52;4.07;;;;;;;;;;5036949;28;20067;-79
2023/01/05 13:03:17;;;;;;;23.50;3.35;;;;;;;;;;5037299;28;20434;-79
2023/01/05 13:06:04;;;;;;;21.60;3.35;;;;;;;;;;5048576;28;20014;-81
2023/01/05 13:08:37;;;;;;;29.23;5.40;;;;;;;;;;5057185;28;20044;-80
2023/01/05 13:11:03;;;;;;;17.15;3.17;;;;;;;;;;5056889;28;20060;-82
2023/01/05 13:13:32;;;;;;;21.35;2.88;;;;;;;;;;5057340;28;20022;-79
2023/01/05 13:16:01;;;;;;;21.73;2.97;;;;;;;;;;5048115;28;20064;-78
2023/01/05 13:18:28;;;;;;;12.85;2.42;;;;;;;;;;5039679;28;20026;-79
2023/01/05 13:21:00;;;;;;;21.55;3.55;;;;;;;;;;5040529;28;20029;-79
2023/01/05 13:23:58;;;;;;;24.38;5.72;;;;;;;;;;5035683;28;20566;-76
2023/01/05 13:26:24;;;;;;;28.67;7.60;;;;;;;;;;5016201;28;20088;-76
2023/01/05 13:28:54;;;;;;;18.23;3.28;;;;;;;;;;5037296;28;20021;-75
2023/01/05 13:31:23;;;;;;;15.90;3.00;;;;;;;;;;5033429;28;20036;-74
2023/01/05 13:34:08;;;;;;;21.70;2.60;;;;;;;;;;5032887;28;20032;-75
2023/01/05 13:36:46;;;;;;;21.17;3.33;;;;;;;;;;5032613;28;20032;-73
2023/01/05 13:39:17;;;;;;;17.30;2.55;;;;;;;;;;5034799;28;20048;-74
2023/01/05 13:41:56;;;;;;;15.07;3.03;;;;;;;;;;5033841;28;20453;-75
2023/01/05 13:44:31;;;;;;;65.53;17.13;;;;;;;;;;5033152;28;20025;-74
2023/01/05 13:47:05;;;;;;;19.02;4.47;;;;;;;;;;5034061;28;20101;-75
2023/01/05 13:49:43;;;;;;;12.13;2.60;;;;;;;;;;5035449;28;20099;-76
2023/01/05 13:52:09;;;;;;;21.58;2.47;;;;;;;;;;5033821;28;20089;-76
2023/01/05 13:54:40;;;;;;;10.10;2.30;;;;;;;;;;5034121;28;20438;-74
2023/01/05 13:57:08;;;;;;;25.88;3.95;;;;;;;;;;5033861;28;20030;-75
2023/01/05 13:59:35;;;;;;;17.88;2.60;;;;;;;;;;5035068;28;20478;-74
2023/01/05 14:02:01;;;;;;;19.20;3.47;;;;;;;;;;5038278;28;20033;-75
2023/01/05 14:04:29;;;;;;;20.30;4.43;;;;;;;;;;5044779;28;20101;-74
2023/01/05 14:06:57;;;;;;;17.85;2.78;;;;;;;;;;5040437;28;20073;-75
2023/01/05 14:09:26;;;;;;;21.10;2.78;;;;;;;;;;5035221;28;20027;-75
2023/01/05 14:12:07;;;;;;;17.08;3.13;;;;;;;;;;5035997;28;20025;-75
2023/01/05 14:14:52;;;;;;;24.45;3.42;;;;;;;;;;5037707;28;20043;-75
2023/01/05 14:17:37;;;;;;;25.55;2.80;;;;;;;;;;5049128;28;20044;-75
2023/01/05 14:20:07;;;;;;;27.85;2.95;;;;;;;;;;5057825;28;20091;-75
2023/01/05 14:22:35;;;;;;;20.58;2.72;;;;;;;;;;5058521;28;20033;-76
2023/01/05 14:25:24;;;;;;;30.00;3.80;;;;;;;;;;5057409;28;20044;-75
2023/01/05 14:28:08;;;;;;;35.13;9.57;;;;;;;;;;5038249;28;20050;-75
2023/01/05 14:30:34;;;;;;;23.08;4.00;;;;;;;;;;5057084;28;20085;-75
2023/01/05 14:33:04;;;;;;;25.23;3.33;;;;;;;;;;5057998;28;20025;-75
2023/01/05 14:35:33;;;;;;;19.60;2.88;;;;;;;;;;5058316;28;20013;-75
2023/01/05 14:38:05;;;;;;;26.45;3.95;;;;;;;;;;5056714;28;20026;-75
2023/01/05 14:40:42;;;;;;;21.27;2.85;;;;;;;;;;5036679;28;20025;-75
2023/01/05 14:43:28;;;;;;;17.63;3.10;;;;;;;;;;5042603;28;20056;-75
2023/01/05 14:46:08;;;;;;;26.90;3.15;;;;;;;;;;5047157;28;20042;-76
2023/01/05 14:48:36;;;;;;;15.55;3.28;;;;;;;;;;5047671;28;20021;-74
2023/01/05 14:51:25;;;;;;;31.80;3.67;;;;;;;;;;5048796;28;20029;-76
2023/01/05 14:53:52;;;;;;;29.73;4.35;;;;;;;;;;5038362;28;20107;-77
2023/01/05 14:56:21;;;;;;;21.85;2.75;;;;;;;;;;5037975;28;20085;-76
2023/01/05 14:58:52;;;;;;;25.77;4.57;;;;;;;;;;5038822;28;20113;-77
2023/01/05 15:01:20;;;;;;;17.83;3.47;;;;;;;;;;5038175;28;20029;-77
2023/01/05 15:03:46;;;;;;;22.70;3.50;;;;;;;;;;5043356;28;20048;-74
2023/01/05 15:06:18;;;;;;;21.50;3.40;;;;;;;;;;5057191;28;20021;-73
2023/01/05 15:08:47;;;;;;;19.58;3.13;;;;;;;;;;5054563;28;20025;-76
2023/01/05 15:11:33;;;;;;;19.02;3.00;;;;;;;;;;5050587;28;20010;-74
2023/01/05 15:17:18;;;;;;;22.23;4.28;;;;;;;;;;5045263;28;20129;-76
2023/01/05 15:19:54;;;;;;;20.20;4.32;;;;;;;;;;5035587;28;20026;-74